National Weather Service Raw Text Product

Displaying AFOS PIL: TAFMCW Received: 2018-02-09 11:34 UTC


000 
FTUS43 KDMX 091134
TAFMCW
TAF
KMCW 091134Z 0912/1012 02013KT P6SM SCT028 OVC050
     FM100000 34007KT P6SM SCT035 BKN100=